Météo Nord-Pas-de-Calais   La météo au plus près de chez vous

Station météorologique

Observations météo à Hiva-Oa (98723)

98723001 51 m Dernier relevé à 23:36
28.8°C
Humidité 88 % Vent 8.3 km/h 1013.3 hPa

Journée consultée

Samedi 5 Septembre 2026

Synthèse de la journée

Périodes de référence en UTC

Température maximale

30.5°C

à 23:00

06h 06h

Température minimale

24.7°C

à 13:24

18h 18h

Rafale maximale

62 km/h

à 22:12

00h 00h

Précipitations

2 mm

Cumul quotidien

06h 06h

Ensoleillement

5h 13 mins

Durée quotidienne

00h 00h

Graphiques de la journée

Heure locale Réduire

Données détaillées

Relevés météo

Pas de 6 minutes Afficher les relevés infra-horaires
Relevés météo détaillés à Hiva-Oa pour le Samedi 5 Septembre 2026
Heure Température °C Point de rosée °C Humidité % Vent moyen (raf.), km/h Précipitations mm Visibilité m Ensoleillement min Rayonnement global W/m² Pression hPa Nébulosité Octas
23:36 28.8 °C 23.9 °C 75 % 19 km/h (30 km/h) 0 mm0 mm 17710 m 6 min 381.6 W/m² 1012.1 hPa
23:30 28.4 °C 23.3 °C 74 % 23 km/h (33 km/h) 0 mm0 mm 17040 m 6 min 369.1 W/m² 1012.2 hPa
23:24 28.7 °C 23.1 °C 72 % 24 km/h (33 km/h) 0 mm0 mm 15660 m 1 min 102.6 W/m² 1012.3 hPa
23:18 29.5 °C 24.6 °C 75 % 18 km/h (26 km/h) 0 mm0 mm 16050 m 6 min 376.8 W/m² 1012.3 hPa
23:12 29 °C 24.1 °C 75 % 16 km/h (23 km/h) 0 mm0 mm 16870 m 6 min 386.5 W/m² 1012.4 hPa
23:06 28.5 °C 24.3 °C 78 % 19 km/h (26 km/h) 0 mm0 mm 18210 m 6 min 353.7 W/m² 1012.5 hPa
23:00 28 °C 24.2 °C 80 % 15 km/h (26 km/h) 0 mm0.4 mm 19230 m 5 min 282.6 W/m² 1012.7 hPa 8 Octas
22:54 27.3 °C 23.8 °C 81 % 8 km/h (22 km/h) 0 mm0 mm 14600 m 0 min 173.3 W/m² 1012.9 hPa
22:48 27 °C 23 °C 79 % 7 km/h (16 km/h) 0 mm0 mm 12220 m 0 min 162.3 W/m² 1013 hPa
22:42 27.6 °C 25.2 °C 87 % 6 km/h (12 km/h) 0 mm0 mm 14050 m 0 min 195.2 W/m² 1013.1 hPa
22:36 27.1 °C 24.9 °C 88 % 8 km/h (24 km/h) 0 mm0 mm 12740 m 0 min 187.5 W/m² 1013.3 hPa
22:30 26.4 °C 23.7 °C 85 % 13 km/h (31 km/h) 0 mm0 mm 9090 m 0 min 118.9 W/m² 1013.4 hPa
22:24 26.4 °C 23.7 °C 85 % 23 km/h (45 km/h) 0 mm0 mm 7600 m 0 min 75.9 W/m² 1013.6 hPa
22:18 26.6 °C 23.5 °C 83 % 37 km/h (62 km/h) 0.4 mm0 mm 4370 m 0 min 42.9 W/m² 1013.6 hPa
22:12 28.2 °C 23.3 °C 75 % 32 km/h (62 km/h) 0 mm0 mm 9060 m 0 min 52.8 W/m² 1013.5 hPa
22:06 30 °C 23 °C 66 % 23 km/h (35 km/h) 0 mm0 mm 17280 m 3 min 242.7 W/m² 1013.5 hPa
22:00 30.4 °C 23.8 °C 68 % 23 km/h (33 km/h) 0 mm0 mm 17400 m 6 min 395.7 W/m² 1013.5 hPa 6 Octas
21:54 29.9 °C 23.1 °C 67 % 24 km/h (33 km/h) 0 mm0 mm 19040 m 6 min 397.2 W/m² 1013.6 hPa
21:48 29.5 °C 22.7 °C 67 % 21 km/h (32 km/h) 0 mm0 mm 18650 m 5 min 299.7 W/m² 1013.6 hPa
21:42 29.7 °C 22.9 °C 67 % 23 km/h (34 km/h) 0 mm0 mm 18880 m 4 min 239 W/m² 1013.8 hPa
21:36 30.2 °C 23.1 °C 66 % 22 km/h (33 km/h) 0 mm0 mm 19910 m 6 min 324.1 W/m² 1013.8 hPa
21:30 30 °C 23 °C 66 % 25 km/h (35 km/h) 0 mm0 mm 19800 m 6 min 340.6 W/m² 1013.9 hPa
21:24 30 °C 23.2 °C 67 % 26 km/h (35 km/h) 0 mm0 mm 18650 m 6 min 329.6 W/m² 1014 hPa
21:18 30.2 °C 23.4 °C 67 % 26 km/h (39 km/h) 0 mm0 mm 19170 m 6 min 311.7 W/m² 1014.1 hPa
21:12 30 °C 23 °C 66 % 23 km/h (39 km/h) 0 mm0 mm 19260 m 6 min 314.9 W/m² 1014 hPa
21:06 29.8 °C 23 °C 67 % 27 km/h (40 km/h) 0 mm0 mm 18730 m 5 min 293.1 W/m² 1014.1 hPa
21:00 29.5 °C 22.5 °C 66 % 28 km/h (39 km/h) 0 mm0 mm 18860 m 5 min 263.2 W/m² 1014.2 hPa
20:54 29.4 °C 22.1 °C 65 % 29 km/h (43 km/h) 0 mm0 mm 18890 m 6 min 300 W/m² 1014.1 hPa
20:48 29.3 °C 22.8 °C 68 % 30 km/h (38 km/h) 0 mm0 mm 18620 m 5 min 259.7 W/m² 1014.2 hPa
20:42 29.5 °C 22.7 °C 67 % 26 km/h (37 km/h) 0 mm0 mm 17710 m 6 min 291.3 W/m² 1014.1 hPa
20:36 29.4 °C 22.6 °C 67 % 27 km/h (43 km/h) 0 mm0 mm 17400 m 6 min 273.3 W/m² 1014.1 hPa
20:30 29.4 °C 22.6 °C 67 % 27 km/h (39 km/h) 0 mm0 mm 17580 m 6 min 277.6 W/m² 1014.1 hPa
20:24 29.5 °C 23 °C 68 % 24 km/h (36 km/h) 0 mm0 mm 17720 m 6 min 283.2 W/m² 1014 hPa
20:18 29 °C 22.7 °C 69 % 26 km/h (37 km/h) 0 mm0 mm 18840 m 6 min 254.9 W/m² 1014 hPa
20:12 28.8 °C 22.5 °C 69 % 27 km/h (38 km/h) 0 mm0 mm 18330 m 6 min 243.5 W/m² 1014 hPa
20:06 28.7 °C 22.4 °C 69 % 29 km/h (39 km/h) 0 mm0 mm 18500 m 5 min 196 W/m² 1014.1 hPa
20:00 28.8 °C 23.2 °C 72 % 25 km/h (39 km/h) 0 mm0 mm 18630 m 6 min 235.8 W/m² 1014.1 hPa 6 Octas
19:54 28 °C 22.9 °C 74 % 26 km/h (39 km/h) 0 mm0 mm 18900 m 2 min 146.9 W/m² 1014.1 hPa
19:48 28 °C 22.7 °C 73 % 27 km/h (39 km/h) 0 mm0 mm 17400 m 2 min 131 W/m² 1014 hPa
19:42 28.1 °C 23 °C 74 % 25 km/h (43 km/h) 0 mm0 mm 16570 m 4 min 181 W/m² 1014 hPa
19:36 28 °C 22.9 °C 74 % 23 km/h (38 km/h) 0 mm0 mm 18280 m 4 min 139.6 W/m² 1013.9 hPa
19:30 27.6 °C 22.5 °C 74 % 22 km/h (39 km/h) 0 mm0 mm 18760 m 0 min 70.7 W/m² 1013.9 hPa
19:24 27.7 °C 22.2 °C 72 % 24 km/h (39 km/h) 0 mm0 mm 19300 m 0 min 52.1 W/m² 1013.9 hPa
19:18 28.7 °C 22.7 °C 70 % 25 km/h (38 km/h) 0 mm0 mm 18400 m 5 min 144 W/m² 1013.9 hPa
19:12 28.4 °C 22.6 °C 71 % 29 km/h (40 km/h) 0 mm0 mm 18950 m 6 min 179.5 W/m² 1013.8 hPa
19:06 27.9 °C 22.4 °C 72 % 30 km/h (41 km/h) 0 mm0 mm 19720 m 6 min 152.5 W/m² 1013.7 hPa
19:00 27.4 °C 22.4 °C 74 % 27 km/h (40 km/h) 0 mm0 mm 17290 m 4 min 113.3 W/m² 1013.6 hPa 6 Octas
18:54 27.2 °C 23 °C 78 % 25 km/h (36 km/h) 0 mm0 mm 17170 m 3 min 83.4 W/m² 1013.5 hPa
18:48 26.9 °C 22.5 °C 77 % 24 km/h (40 km/h) 0 mm0 mm 19070 m 0 min 36.9 W/m² 1013.3 hPa
18:42 26.9 °C 22.3 °C 76 % 23 km/h (38 km/h) 0 mm0 mm 19810 m 1 min 47.6 W/m² 1013.3 hPa
18:36 26.8 °C 22 °C 75 % 26 km/h (38 km/h) 0 mm0 mm 19410 m 0 min 35.7 W/m² 1013.2 hPa
18:30 26.8 °C 21.8 °C 74 % 27 km/h (43 km/h) 0 mm0 mm 19060 m 1 min 39.8 W/m² 1013.2 hPa
18:24 26.8 °C 21.8 °C 74 % 28 km/h (43 km/h) 0 mm0 mm 17600 m 3 min 53.7 W/m² 1013.1 hPa
18:18 26.7 °C 22.8 °C 79 % 27 km/h (41 km/h) 0 mm0 mm 17400 m 2 min 43.6 W/m² 1013 hPa
18:12 26.5 °C 22.3 °C 78 % 27 km/h (41 km/h) 0 mm0 mm 17730 m 0 min 23.7 W/m² 1013 hPa
18:06 26.4 °C 22.5 °C 79 % 27 km/h (41 km/h) 0 mm0 mm 17990 m 0 min 17.6 W/m² 1012.9 hPa
18:00 26.3 °C 22.4 °C 79 % 23 km/h (41 km/h) 0 mm0 mm 17820 m 0 min 17.7 W/m² 1012.9 hPa 7 Octas
17:54 26.1 °C 22.6 °C 81 % 14 km/h (31 km/h) 0 mm0 mm 18120 m 0 min 13.8 W/m² 1012.8 hPa
17:48 26 °C 22.5 °C 81 % 7 km/h (13 km/h) 0 mm0 mm 19340 m 0 min 13.5 W/m² 1012.7 hPa
17:42 25.9 °C 22.2 °C 80 % 10 km/h (22 km/h) 0 mm0 mm 18030 m 0 min 6.7 W/m² 1012.7 hPa
17:36 25.9 °C 22.4 °C 81 % 17 km/h (36 km/h) 0 mm0 mm 18330 m 0 min 0 W/m² 1012.7 hPa
17:30 25.9 °C 22.4 °C 81 % 22 km/h (36 km/h) 0 mm0 mm 17760 m 0 min 0 W/m² 1012.5 hPa
17:24 26 °C 22.7 °C 82 % 22 km/h (35 km/h) 0 mm0 mm 17080 m 0 min 0 W/m² 1012.5 hPa
17:18 26 °C 22.7 °C 82 % 20 km/h (35 km/h) 0 mm0 mm 16920 m 0 min 0 W/m² 1012.5 hPa
17:12 25.9 °C 22.6 °C 82 % 17 km/h (33 km/h) 0 mm0 mm 16400 m 0 min 0 W/m² 1012.4 hPa
17:06 25.9 °C 22.8 °C 83 % 13 km/h (21 km/h) 0 mm0 mm 17050 m 0 min 0 W/m² 1012.4 hPa
17:00 25.8 °C 22.9 °C 84 % 10 km/h (21 km/h) 0 mm0 mm 18280 m 0 min 0 W/m² 1012.4 hPa 6 Octas
16:54 25.8 °C 22.5 °C 82 % 12 km/h (24 km/h) 0 mm0 mm 18970 m 0 min 0 W/m² 1012.4 hPa
16:48 25.9 °C 22.6 °C 82 % 15 km/h (27 km/h) 0 mm0 mm 18920 m 0 min 0 W/m² 1012.2 hPa
16:42 25.8 °C 22.5 °C 82 % 18 km/h (39 km/h) 0 mm0 mm 18840 m 0 min 0 W/m² 1012.1 hPa
16:36 25.8 °C 22.5 °C 82 % 18 km/h (39 km/h) 0 mm0 mm 17570 m 0 min 0 W/m² 1012 hPa
16:30 25.8 °C 22.9 °C 84 % 18 km/h (33 km/h) 0 mm0 mm 14430 m 0 min 0 W/m² 1011.9 hPa
16:24 25.9 °C 23 °C 84 % 14 km/h (33 km/h) 0 mm0 mm 13930 m 0 min 0 W/m² 1011.9 hPa
16:18 25.9 °C 22.8 °C 83 % 13 km/h (23 km/h) 0 mm0 mm 16130 m 0 min 0 W/m² 1011.9 hPa
16:12 26 °C 22.7 °C 82 % 14 km/h (28 km/h) 0 mm0 mm 17310 m 0 min 0 W/m² 1011.9 hPa
16:06 25.9 °C 22.6 °C 82 % 8 km/h (23 km/h) 0 mm0 mm 18210 m 0 min 0 W/m² 1011.9 hPa
16:00 25.9 °C 22.6 °C 82 % 7 km/h (16 km/h) 0 mm0 mm 18280 m 0 min 0 W/m² 1011.8 hPa 7 Octas
15:54 25.9 °C 22.6 °C 82 % 13 km/h (29 km/h) 0 mm0 mm 17110 m 0 min 0 W/m² 1011.7 hPa
15:48 25.8 °C 22.3 °C 81 % 17 km/h (35 km/h) 0 mm0 mm 17710 m 0 min 0 W/m² 1011.7 hPa
15:42 25.7 °C 22.2 °C 81 % 21 km/h (37 km/h) 0 mm0 mm 18220 m 0 min 0 W/m² 1011.7 hPa
15:36 25.5 °C 22.2 °C 82 % 14 km/h (32 km/h) 0 mm0 mm 17900 m 0 min 0 W/m² 1011.7 hPa
15:30 25.4 °C 22.3 °C 83 % 10 km/h (25 km/h) 0 mm0 mm 16870 m 0 min 0 W/m² 1011.7 hPa
15:24 25.4 °C 22.7 °C 85 % 8 km/h (25 km/h) 0 mm0 mm 16730 m 0 min 0 W/m² 1011.7 hPa
15:18 25.3 °C 22.8 °C 86 % 10 km/h (21 km/h) 0 mm0 mm 18300 m 0 min 0 W/m² 1011.7 hPa
15:12 25.2 °C 22.5 °C 85 % 13 km/h (23 km/h) 0 mm0 mm 18320 m 0 min 0 W/m² 1011.7 hPa
15:06 25.2 °C 22.7 °C 86 % 9 km/h (22 km/h) 0 mm0 mm 14170 m 0 min 0 W/m² 1011.7 hPa
15:00 25.2 °C 22.9 °C 87 % 7 km/h (21 km/h) 0 mm0 mm 12660 m 0 min 0 W/m² 1011.6 hPa 7 Octas
14:54 25 °C 22.5 °C 86 % 6 km/h (16 km/h) 0 mm0 mm 17350 m 0 min 0 W/m² 1011.7 hPa
14:48 25 °C 22.5 °C 86 % 10 km/h (22 km/h) 0 mm0 mm 18620 m 0 min 0 W/m² 1011.6 hPa
14:42 25.1 °C 22.8 °C 87 % 9 km/h (22 km/h) 0 mm0 mm 18010 m 0 min 0 W/m² 1011.6 hPa
14:36 25.1 °C 23 °C 88 % 9 km/h (21 km/h) 0 mm0 mm 16720 m 0 min 0 W/m² 1011.5 hPa
14:30 25.1 °C 23 °C 88 % 6 km/h (21 km/h) 0 mm0 mm 17780 m 0 min 0 W/m² 1011.5 hPa
14:24 25 °C 22.9 °C 88 % 5 km/h (12 km/h) 0 mm0 mm 16050 m 0 min 0 W/m² 1011.5 hPa
14:18 25 °C 22.9 °C 88 % 8 km/h (18 km/h) 0 mm0 mm 18350 m 0 min 0 W/m² 1011.5 hPa
14:12 25 °C 22.9 °C 88 % 8 km/h (18 km/h) 0 mm0 mm 14600 m 0 min 0 W/m² 1011.6 hPa
14:06 24.9 °C 23.1 °C 90 % 5 km/h (10 km/h) 0 mm0 mm 9080 m 0 min 0 W/m² 1011.7 hPa
14:00 24.9 °C 23.3 °C 91 % 6 km/h (11 km/h) 0 mm0 mm 13050 m 0 min 0 W/m² 1011.7 hPa 8 Octas
13:54 24.8 °C 22.9 °C 89 % 6 km/h (16 km/h) 0 mm0 mm 17940 m 0 min 0 W/m² 1011.6 hPa
13:48 24.8 °C 22.9 °C 89 % 5 km/h (14 km/h) 0 mm0 mm 18250 m 0 min 0 W/m² 1011.7 hPa
13:42 24.7 °C 23.3 °C 92 % 6 km/h (14 km/h) 0 mm0 mm 17360 m 0 min 0 W/m² 1011.7 hPa
13:36 24.7 °C 23.3 °C 92 % 7 km/h (14 km/h) 0 mm0 mm 18300 m 0 min 0 W/m² 1011.7 hPa
13:30 24.7 °C 23.3 °C 92 % 6 km/h (9 km/h) 0 mm0 mm 15400 m 0 min 0 W/m² 1011.6 hPa
13:24 24.7 °C 23.5 °C 93 % 6 km/h (9 km/h) 0 mm0 mm 10930 m 0 min 0 W/m² 1011.7 hPa
13:18 24.8 °C 23.4 °C 92 % 4 km/h (8 km/h) 0 mm0 mm 14450 m 0 min 0 W/m² 1011.8 hPa
13:12 24.8 °C 23.4 °C 92 % 4 km/h (8 km/h) 0 mm0 mm 18350 m 0 min 0 W/m² 1011.8 hPa
13:06 24.9 °C 23.5 °C 92 % 4 km/h (9 km/h) 0 mm0 mm 14740 m 0 min 0 W/m² 1011.8 hPa
13:00 24.9 °C 23.5 °C 92 % 4 km/h (11 km/h) 0 mm0 mm 12410 m 0 min 0 W/m² 1011.8 hPa 8 Octas
12:54 25 °C 23.4 °C 91 % 4 km/h (8 km/h) 0 mm0 mm 10800 m 0 min 0 W/m² 1011.8 hPa
12:48 25 °C 23.6 °C 92 % 5 km/h (13 km/h) 0 mm0 mm 10660 m 0 min 0 W/m² 1011.9 hPa
12:42 25 °C 23.4 °C 91 % 5 km/h (13 km/h) 0 mm0 mm 10910 m 0 min 0 W/m² 1012 hPa
12:36 25.1 °C 23.7 °C 92 % 5 km/h (11 km/h) 0 mm0 mm 10000 m 0 min 0 W/m² 1012 hPa
12:30 25 °C 23.2 °C 90 % 3 km/h (7 km/h) 0 mm0 mm 15210 m 0 min 0 W/m² 1012.1 hPa
12:24 25 °C 23.4 °C 91 % 5 km/h (10 km/h) 0 mm0 mm 15070 m 0 min 0 W/m² 1012.1 hPa
12:18 25 °C 23.4 °C 91 % 6 km/h (12 km/h) 0 mm0 mm 16340 m 0 min 0 W/m² 1012.3 hPa
12:12 24.9 °C 23.7 °C 93 % 6 km/h (14 km/h) 0 mm0 mm 14780 m 0 min 0 W/m² 1012.4 hPa
12:06 24.9 °C 23.7 °C 93 % 7 km/h (14 km/h) 0 mm0 mm 14960 m 0 min 0 W/m² 1012.5 hPa
12:00 24.9 °C 23.7 °C 93 % 9 km/h (14 km/h) 0 mm0.2 mm 15320 m 0 min 0 W/m² 1012.6 hPa 8 Octas
11:54 25 °C 23.8 °C 93 % 10 km/h (14 km/h) 0 mm0 mm 10510 m 0 min 0 W/m² 1012.7 hPa
11:48 25.1 °C 23.9 °C 93 % 6 km/h (12 km/h) 0 mm0 mm 7870 m 0 min 0 W/m² 1012.8 hPa
11:42 25.1 °C 23.7 °C 92 % 3 km/h (7 km/h) 0 mm0 mm 12880 m 0 min 0 W/m² 1012.9 hPa
11:36 25 °C 23.6 °C 92 % 4 km/h (14 km/h) 0 mm0 mm 9480 m 0 min 0 W/m² 1013 hPa
11:30 25.1 °C 23.9 °C 93 % 5 km/h (14 km/h) 0.2 mm0 mm 4590 m 0 min 0 W/m² 1013 hPa
11:24 25.1 °C 23.9 °C 93 % 3 km/h (6 km/h) 0 mm0 mm 5690 m 0 min 0 W/m² 1013 hPa
11:18 25.1 °C 23.7 °C 92 % 3 km/h (10 km/h) 0 mm0 mm 14580 m 0 min 0 W/m² 1013 hPa
11:12 25.2 °C 23.8 °C 92 % 6 km/h (12 km/h) 0 mm0 mm 15270 m 0 min 0 W/m² 1013.2 hPa
11:06 25.3 °C 24.1 °C 93 % 10 km/h (14 km/h) 0 mm0 mm 13800 m 0 min 0 W/m² 1013.2 hPa
11:00 25.3 °C 24.1 °C 93 % 12 km/h (14 km/h) 0 mm1.4 mm 12140 m 0 min 0 W/m² 1013.3 hPa 8 Octas
10:54 25.3 °C 23.9 °C 92 % 8 km/h (14 km/h) 0 mm0 mm 9910 m 0 min 0 W/m² 1013.4 hPa
10:48 25.4 °C 23.8 °C 91 % 8 km/h (18 km/h) 0 mm0 mm 6850 m 0 min 0 W/m² 1013.5 hPa
10:42 25.6 °C 24 °C 91 % 16 km/h (33 km/h) 0.2 mm0 mm 3530 m 0 min 0 W/m² 1013.4 hPa
10:36 25.7 °C 24.1 °C 91 % 24 km/h (40 km/h) 1.2 mm0 mm 3780 m 0 min 0 W/m² 1013.4 hPa
10:30 25.8 °C 24 °C 90 % 13 km/h (40 km/h) 0 mm0 mm 7160 m 0 min 0 W/m² 1013.3 hPa
10:24 25.7 °C 23 °C 85 % 4 km/h (8 km/h) 0 mm0 mm 11670 m 0 min 0 W/m² 1013.3 hPa
10:18 25.9 °C 23.4 °C 86 % 4 km/h (11 km/h) 0 mm0 mm 12460 m 0 min 0 W/m² 1013.2 hPa
10:12 25.9 °C 23.2 °C 85 % 6 km/h (11 km/h) 0 mm0 mm 13390 m 0 min 0 W/m² 1013.2 hPa
10:06 26 °C 23.5 °C 86 % 5 km/h (9 km/h) 0 mm0 mm 10350 m 0 min 0 W/m² 1013.2 hPa
10:00 26 °C 23.1 °C 84 % 5 km/h (10 km/h) 0 mm0 mm 11000 m 0 min 0 W/m² 1013.3 hPa 6 Octas
09:54 26.1 °C 23.4 °C 85 % 6 km/h (12 km/h) 0 mm0 mm 13670 m 0 min 0 W/m² 1013.4 hPa
09:48 26.3 °C 23.2 °C 83 % 5 km/h (10 km/h) 0 mm0 mm 15620 m 0 min 0 W/m² 1013.4 hPa
09:42 26.4 °C 23.5 °C 84 % 4 km/h (9 km/h) 0 mm0 mm 14210 m 0 min 0 W/m² 1013.4 hPa
09:36 26.5 °C 23.4 °C 83 % 3 km/h (9 km/h) 0 mm0 mm 11930 m 0 min 0 W/m² 1013.4 hPa
09:30 26.5 °C 23.2 °C 82 % 5 km/h (10 km/h) 0 mm0 mm 11780 m 0 min 0 W/m² 1013.4 hPa
09:24 26.6 °C 23.1 °C 81 % 3 km/h (10 km/h) 0 mm0 mm 11260 m 0 min 0 W/m² 1013.4 hPa
09:18 26.7 °C 23.2 °C 81 % 4 km/h (9 km/h) 0 mm0 mm 9810 m 0 min 0 W/m² 1013.3 hPa
09:12 26.7 °C 23 °C 80 % 6 km/h (9 km/h) 0 mm0 mm 11770 m 0 min 0 W/m² 1013.2 hPa
09:06 26.7 °C 23 °C 80 % 6 km/h (9 km/h) 0 mm0 mm 10420 m 0 min 0 W/m² 1013.2 hPa
09:00 26.7 °C 23 °C 80 % 6 km/h (10 km/h) 0 mm0 mm 11330 m 0 min 0 W/m² 1013.2 hPa 8 Octas
08:54 26.7 °C 23 °C 80 % 6 km/h (10 km/h) 0 mm0 mm 12230 m 0 min 0 W/m² 1013.2 hPa
08:48 26.6 °C 22.9 °C 80 % 6 km/h (10 km/h) 0 mm0 mm 11420 m 0 min 0 W/m² 1013.3 hPa
08:42 26.6 °C 22.9 °C 80 % 6 km/h (10 km/h) 0 mm0 mm 11280 m 0 min 0 W/m² 1013.3 hPa
08:36 26.6 °C 22.9 °C 80 % 6 km/h (10 km/h) 0 mm0 mm 12240 m 0 min 0 W/m² 1013.3 hPa
08:30 26.7 °C 23.2 °C 81 % 8 km/h (15 km/h) 0 mm0 mm 9720 m 0 min 0 W/m² 1013.2 hPa
08:24 26.8 °C 23.1 °C 80 % 8 km/h (15 km/h) 0 mm0 mm 10110 m 0 min 0 W/m² 1013.1 hPa
08:18 26.9 °C 22.9 °C 79 % 5 km/h (9 km/h) 0 mm0 mm 11400 m 0 min 0 W/m² 1013.1 hPa
08:12 27.1 °C 22.7 °C 77 % 5 km/h (9 km/h) 0 mm0 mm 12930 m 0 min 0 W/m² 1013 hPa
08:06 27.2 °C 22.6 °C 76 % 4 km/h (9 km/h) 0 mm0 mm 14570 m 0 min 0 W/m² 1013 hPa
08:00 27.2 °C 22.6 °C 76 % 8 km/h (17 km/h) 0 mm0 mm 14830 m 0 min 0 W/m² 1012.9 hPa 8 Octas
07:54 27.3 °C 22.9 °C 77 % 9 km/h (17 km/h) 0 mm0 mm 13840 m 0 min 0 W/m² 1013 hPa
07:48 27.3 °C 22.9 °C 77 % 7 km/h (17 km/h) 0 mm0 mm 14220 m 0 min 0 W/m² 1012.9 hPa
07:42 27.3 °C 22.7 °C 76 % 6 km/h (12 km/h) 0 mm0 mm 15040 m 0 min 0 W/m² 1012.8 hPa
07:36 27.3 °C 22.7 °C 76 % 7 km/h (15 km/h) 0 mm0 mm 15880 m 0 min 0 W/m² 1012.8 hPa
07:30 27.2 °C 22.4 °C 75 % 7 km/h (15 km/h) 0 mm0 mm 14610 m 0 min 0 W/m² 1012.7 hPa
07:24 27.3 °C 22.7 °C 76 % 6 km/h (15 km/h) 0 mm0 mm 14490 m 0 min 0 W/m² 1012.6 hPa
07:18 27.3 °C 22.5 °C 75 % 7 km/h (12 km/h) 0 mm0 mm 14950 m 0 min 0 W/m² 1012.6 hPa
07:12 27.2 °C 22.4 °C 75 % 12 km/h (22 km/h) 0 mm0 mm 16030 m 0 min 0 W/m² 1012.5 hPa
07:06 27.2 °C 22.4 °C 75 % 12 km/h (22 km/h) 0 mm0 mm 17220 m 0 min 0 W/m² 1012.4 hPa
07:00 27.2 °C 22.6 °C 76 % 8 km/h (22 km/h) 0 mm0 mm 17040 m 0 min 0 W/m² 1012.4 hPa 8 Octas
06:54 27.3 °C 22.7 °C 76 % 9 km/h (21 km/h) 0 mm0 mm 16300 m 0 min 0 W/m² 1012.4 hPa
06:48 27.3 °C 22.7 °C 76 % 9 km/h (18 km/h) 0 mm0 mm 15740 m 0 min 0 W/m² 1012.3 hPa
06:42 27.3 °C 22.7 °C 76 % 13 km/h (23 km/h) 0 mm0 mm 15590 m 0 min 0 W/m² 1012.2 hPa
06:36 27.3 °C 22.9 °C 77 % 9 km/h (23 km/h) 0 mm0 mm 15280 m 0 min 0 W/m² 1012.1 hPa
06:30 27.3 °C 22.9 °C 77 % 6 km/h (15 km/h) 0 mm0 mm 14930 m 0 min 0 W/m² 1012 hPa
06:24 27.3 °C 22.9 °C 77 % 11 km/h (21 km/h) 0 mm0 mm 15310 m 0 min 0 W/m² 1012 hPa
06:18 27.3 °C 22.9 °C 77 % 14 km/h (21 km/h) 0 mm0 mm 15880 m 0 min 0 W/m² 1011.9 hPa
06:12 27.3 °C 22.9 °C 77 % 15 km/h (22 km/h) 0 mm0 mm 16410 m 0 min 0 W/m² 1011.9 hPa
06:06 27.3 °C 22.9 °C 77 % 15 km/h (23 km/h) 0 mm0 mm 16110 m 0 min 0 W/m² 1011.8 hPa
06:00 27.3 °C 22.9 °C 77 % 17 km/h (25 km/h) 0 mm0 mm 16690 m 0 min 0 W/m² 1011.8 hPa 8 Octas
05:54 27.4 °C 22.8 °C 76 % 19 km/h (28 km/h) 0 mm0 mm 17280 m 0 min 0 W/m² 1011.8 hPa
05:48 27.3 °C 22.7 °C 76 % 18 km/h (28 km/h) 0 mm0 mm 17260 m 0 min 0 W/m² 1011.7 hPa
05:42 27.3 °C 22.5 °C 75 % 19 km/h (30 km/h) 0 mm0 mm 16240 m 0 min 0 W/m² 1011.7 hPa
05:36 27.4 °C 22.8 °C 76 % 18 km/h (30 km/h) 0 mm0 mm 15950 m 0 min 0 W/m² 1011.6 hPa
05:30 27.5 °C 23.1 °C 77 % 13 km/h (22 km/h) 0 mm0 mm 13940 m 0 min 0 W/m² 1011.6 hPa
05:24 27.4 °C 22.8 °C 76 % 17 km/h (27 km/h) 0 mm0 mm 16220 m 0 min 0 W/m² 1011.5 hPa
05:18 27.4 °C 22.8 °C 76 % 18 km/h (27 km/h) 0 mm0 mm 16250 m 0 min 0 W/m² 1011.3 hPa
05:12 27.4 °C 22.6 °C 75 % 17 km/h (31 km/h) 0 mm0 mm 15680 m 0 min 0 W/m² 1011.3 hPa
05:06 27.3 °C 22.5 °C 75 % 21 km/h (35 km/h) 0 mm0 mm 16230 m 0 min 0 W/m² 1011.2 hPa
05:00 27.4 °C 22.6 °C 75 % 21 km/h (35 km/h) 0 mm0 mm 15920 m 0 min 0 W/m² 1011 hPa
04:54 27.4 °C 22.8 °C 76 % 22 km/h (33 km/h) 0 mm0 mm 16660 m 0 min 0 W/m² 1011 hPa
04:48 27.4 °C 22.6 °C 75 % 24 km/h (41 km/h) 0 mm0 mm 16540 m 0 min 3.9 W/m² 1010.8 hPa
04:42 27.5 °C 22.7 °C 75 % 28 km/h (39 km/h) 0 mm0 mm 17450 m 0 min 11.2 W/m² 1010.7 hPa
04:36 27.5 °C 22.4 °C 74 % 27 km/h (40 km/h) 0 mm0 mm 17400 m 0 min 16.4 W/m² 1010.5 hPa
04:30 27.7 °C 22.9 °C 75 % 27 km/h (40 km/h) 0 mm0 mm 17440 m 0 min 21.9 W/m² 1010.5 hPa
04:24 27.6 °C 22.3 °C 73 % 27 km/h (36 km/h) 0 mm0 mm 17440 m 0 min 16.4 W/m² 1010.5 hPa
04:18 27.7 °C 22.4 °C 73 % 28 km/h (38 km/h) 0 mm0 mm 16950 m 1 min 30.2 W/m² 1010.3 hPa
04:12 28 °C 22.7 °C 73 % 26 km/h (41 km/h) 0 mm0 mm 17170 m 5 min 57.2 W/m² 1010.2 hPa
04:06 28 °C 22.5 °C 72 % 27 km/h (41 km/h) 0 mm0 mm 17660 m 6 min 77.7 W/m² 1010.1 hPa
04:00 28.1 °C 22.3 °C 71 % 30 km/h (41 km/h) 0 mm0 mm 17950 m 6 min 87.9 W/m² 1010.1 hPa
03:54 28.1 °C 22.3 °C 71 % 30 km/h (41 km/h) 0 mm0 mm 17000 m 6 min 96.4 W/m² 1010 hPa
03:48 28.2 °C 22.4 °C 71 % 32 km/h (45 km/h) 0 mm0 mm 16990 m 6 min 102.1 W/m² 1009.9 hPa
03:42 28.1 °C 22.3 °C 71 % 32 km/h (45 km/h) 0 mm0 mm 17050 m 6 min 107.5 W/m² 1009.9 hPa
03:36 28.3 °C 22.8 °C 72 % 31 km/h (42 km/h) 0 mm0 mm 16820 m 6 min 123.2 W/m² 1009.9 hPa
03:30 28.2 °C 22.9 °C 73 % 32 km/h (43 km/h) 0 mm0 mm 16930 m 6 min 133.3 W/m² 1009.9 hPa
03:24 28.2 °C 22.7 °C 72 % 31 km/h (42 km/h) 0 mm0 mm 16970 m 6 min 142.5 W/m² 1009.9 hPa
03:18 28.2 °C 22.9 °C 73 % 30 km/h (48 km/h) 0 mm0 mm 16350 m 6 min 147 W/m² 1009.9 hPa
03:12 28.1 °C 23 °C 74 % 32 km/h (48 km/h) 0 mm0 mm 16420 m 2 min 92.3 W/m² 1010 hPa
03:06 28.2 °C 22.9 °C 73 % 33 km/h (44 km/h) 0 mm0 mm 16950 m 2 min 105.8 W/m² 1009.9 hPa
03:00 28.4 °C 22.9 °C 72 % 30 km/h (45 km/h) 0 mm0 mm 16540 m 5 min 155.9 W/m² 1009.9 hPa
02:54 28.4 °C 23.1 °C 73 % 32 km/h (47 km/h) 0 mm0 mm 17310 m 6 min 177.9 W/m² 1009.8 hPa
02:48 28.4 °C 22.6 °C 71 % 33 km/h (48 km/h) 0 mm0 mm 18200 m 6 min 192.8 W/m² 1009.8 hPa
02:42 28.5 °C 22.7 °C 71 % 34 km/h (50 km/h) 0 mm0 mm 16890 m 5 min 190.4 W/m² 1009.8 hPa
02:36 28.4 °C 22.9 °C 72 % 31 km/h (47 km/h) 0 mm0 mm 16510 m 6 min 193 W/m² 1009.7 hPa
02:30 28.4 °C 23.1 °C 73 % 35 km/h (49 km/h) 0 mm0 mm 17290 m 4 min 163.7 W/m² 1009.7 hPa
02:24 28.5 °C 23 °C 72 % 34 km/h (49 km/h) 0 mm0 mm 16910 m 3 min 157.1 W/m² 1009.6 hPa
02:18 28.5 °C 22.7 °C 71 % 35 km/h (51 km/h) 0 mm0 mm 17640 m 4 min 179.1 W/m² 1009.7 hPa
02:12 28.7 °C 22.9 °C 71 % 37 km/h (51 km/h) 0 mm0 mm 17730 m 4 min 209.6 W/m² 1009.7 hPa
02:06 28.8 °C 22.5 °C 69 % 36 km/h (48 km/h) 0 mm0 mm 16960 m 5 min 218.7 W/m² 1009.7 hPa
02:00 29 °C 22.7 °C 69 % 36 km/h (48 km/h) 0 mm0 mm 17560 m 6 min 259.2 W/m² 1009.7 hPa
01:54 29 °C 22.5 °C 68 % 35 km/h (53 km/h) 0 mm0 mm 18360 m 6 min 265.8 W/m² 1009.6 hPa
01:48 29 °C 22.5 °C 68 % 34 km/h (53 km/h) 0 mm0 mm 17760 m 6 min 276.8 W/m² 1009.7 hPa
01:42 29 °C 22.2 °C 67 % 33 km/h (47 km/h) 0 mm0 mm 16850 m 6 min 280.9 W/m² 1009.7 hPa
01:36 28.7 °C 22.4 °C 69 % 34 km/h (48 km/h) 0 mm0 mm 15730 m 3 min 183.7 W/m² 1009.9 hPa
01:30 28.9 °C 22.9 °C 70 % 35 km/h (48 km/h) 0 mm0 mm 16760 m 6 min 277.8 W/m² 1010 hPa
01:24 28.8 °C 22.5 °C 69 % 32 km/h (48 km/h) 0 mm0 mm 16880 m 5 min 240.1 W/m² 1010.1 hPa
01:18 28.6 °C 23.1 °C 72 % 32 km/h (45 km/h) 0 mm0 mm 16010 m 4 min 207 W/m² 1010.3 hPa
01:12 28.7 °C 22.7 °C 70 % 32 km/h (50 km/h) 0 mm0 mm 15650 m 3 min 206.4 W/m² 1010.3 hPa
01:06 29 °C 23.2 °C 71 % 36 km/h (52 km/h) 0 mm0 mm 17230 m 6 min 322.1 W/m² 1010.4 hPa
01:00 28.7 °C 22.7 °C 70 % 35 km/h (52 km/h) 0 mm0 mm 14780 m 5 min 274.2 W/m² 1010.4 hPa
00:54 28.7 °C 22.7 °C 70 % 32 km/h (46 km/h) 0 mm0 mm 15010 m 3 min 208.3 W/m² 1010.6 hPa
00:48 29.1 °C 22.8 °C 69 % 33 km/h (48 km/h) 0 mm0 mm 14950 m 5 min 300.1 W/m² 1010.6 hPa
00:42 29.2 °C 23.6 °C 72 % 35 km/h (48 km/h) 0 mm0 mm 16540 m 6 min 310.5 W/m² 1010.6 hPa
00:36 28.9 °C 23.1 °C 71 % 35 km/h (49 km/h) 0 mm0 mm 15010 m 4 min 254.9 W/m² 1010.7 hPa
00:30 29 °C 23.2 °C 71 % 39 km/h (56 km/h) 0 mm0 mm 15540 m 5 min 323.5 W/m² 1010.8 hPa
00:24 28.9 °C 22.6 °C 69 % 38 km/h (56 km/h) 0 mm0 mm 17730 m 4 min 271.2 W/m² 1010.8 hPa
00:18 29.1 °C 23.5 °C 72 % 37 km/h (49 km/h) 0 mm0 mm 16100 m 4 min 290 W/m² 1011 hPa
00:12 29.1 °C 23.5 °C 72 % 37 km/h (49 km/h) 0 mm0 mm 15390 m 5 min 307.5 W/m² 1011 hPa
00:06 29.2 °C 23.6 °C 72 % 36 km/h (53 km/h) 0 mm0 mm 14610 m 6 min 347.9 W/m² 1011.1 hPa
00:00 29 °C 23.4 °C 72 % 36 km/h (53 km/h) 0 mm0 mm 14020 m 6 min 326.9 W/m² 1011.1 hPa

Données via Météo-France

Relevés météo à Hiva-Oa

Cette page rassemble les observations de la station de Hiva-Oa : température, humidité, vent, précipitations et pression atmosphérique. Les graphiques facilitent le suivi de la journée, tandis que le tableau donne accès aux mesures horaires et infra-horaires disponibles.

Pour replacer ces mesures dans leur contexte, consultez la climatologie de Hiva-Oa ainsi que ses normales et records. Retrouvez aussi la carte des observations météo en temps réel.